Time;durP1;ratioP1;P1;durP2;ratioP2;P2;SDS_P1;SDS_P2;PMS_P1;PMS_P2;Temp;Humidity;BMP_temperature;BMP_pressure;BME280_temperature;BME280_humidity;BME280_pressure;Samples;Min_cycle;Max_cycle;Signal;HPM_P1;HPM_P2
2024/02/29 00:00:22;;;;;;;44.47;16.20;;;12.90;57.30;;;;;;6271563;28;20051;-74
2024/02/29 00:03:25;;;;;;;36.78;14.88;;;12.90;57.40;;;;;;6293384;28;20470;-76
2024/02/29 00:06:27;;;;;;;41.20;15.80;;;12.90;57.50;;;;;;6274403;28;20051;-75
2024/02/29 00:09:28;;;;;;;37.83;15.75;;;12.90;57.50;;;;;;6308191;28;20109;-76
2024/02/29 00:12:29;;;;;;;40.60;16.02;;;12.90;57.50;;;;;;6290833;28;20043;-76
2024/02/29 00:15:31;;;;;;;43.55;15.90;;;12.90;57.50;;;;;;6291356;28;20461;-75
2024/02/29 00:18:32;;;;;;;37.70;15.20;;;12.90;57.50;;;;;;6290979;28;20099;-76
2024/02/29 00:21:34;;;;;;;41.53;15.35;;;12.90;57.40;;;;;;6291261;28;20206;-76
2024/02/29 00:24:36;;;;;;;40.25;15.32;;;12.90;57.40;;;;;;6293392;28;20065;-74
2024/02/29 00:27:37;;;;;;;42.45;16.50;;;12.90;57.40;;;;;;6274519;28;20058;-74
2024/02/29 00:30:38;;;;;;;37.30;14.80;;;12.90;57.40;;;;;;6290518;28;20027;-76
2024/02/29 00:33:40;;;;;;;38.85;15.95;;;12.90;57.40;;;;;;6292779;28;20413;-76
2024/02/29 00:36:41;;;;;;;42.72;15.45;;;12.90;57.50;;;;;;6287770;28;20016;-75
2024/02/29 00:39:42;;;;;;;37.92;16.10;;;12.90;57.40;;;;;;6292573;28;20052;-76
2024/02/29 00:42:43;;;;;;;37.28;14.32;;;12.90;57.40;;;;;;6285701;28;20515;-75
2024/02/29 00:45:45;;;;;;;37.40;13.75;;;12.90;57.40;;;;;;6299707;28;20157;-76
2024/02/29 00:48:46;;;;;;;32.60;12.98;;;12.90;57.40;;;;;;6297109;28;20111;-76
2024/02/29 00:51:47;;;;;;;34.20;13.05;;;13.00;57.50;;;;;;6294096;28;20810;-76
2024/02/29 00:54:48;;;;;;;37.28;14.73;;;12.90;57.30;;;;;;6296884;28;20101;-75
2024/02/29 00:57:51;;;;;;;44.63;15.32;;;12.90;57.40;;;;;;6294064;28;20129;-75
2024/02/29 01:00:54;;;;;;;33.40;14.20;;;12.90;57.40;;;;;;6288693;28;20121;-76
2024/02/29 01:03:55;;;;;;;33.38;12.65;;;12.90;57.40;;;;;;6285648;28;20036;-76
2024/02/29 01:06:57;;;;;;;40.10;16.23;;;12.80;57.40;;;;;;6280965;28;20162;-76
2024/02/29 01:09:58;;;;;;;35.75;14.60;;;12.80;57.50;;;;;;6296167;28;20043;-76
2024/02/29 01:12:59;;;;;;;40.17;15.35;;;12.80;57.60;;;;;;6299745;28;20055;-76
2024/02/29 01:15:59;;;;;;;42.40;15.73;;;12.70;57.60;;;;;;6306251;28;20489;-76
2024/02/29 01:19:00;;;;;;;37.60;14.85;;;12.80;57.70;;;;;;6284712;28;20040;-76
2024/02/29 01:22:02;;;;;;;35.95;14.93;;;12.80;57.70;;;;;;6285637;28;20524;-76
2024/02/29 01:25:04;;;;;;;41.88;16.65;;;12.70;57.70;;;;;;6312446;28;21431;-75
2024/02/29 01:28:05;;;;;;;44.10;15.77;;;12.80;57.70;;;;;;6307971;28;20024;-75
2024/02/29 01:31:06;;;;;;;41.17;16.35;;;12.80;57.70;;;;;;6312641;28;20124;-75
2024/02/29 01:34:07;;;;;;;40.60;16.00;;;12.90;57.60;;;;;;6310099;28;20122;-76
2024/02/29 01:37:08;;;;;;;42.17;17.08;;;12.90;57.60;;;;;;6310928;28;20043;-75
2024/02/29 01:40:18;;;;;;;41.03;15.20;;;12.90;57.50;;;;;;6300278;28;20036;-75
2024/02/29 01:43:54;;;;;;;37.47;15.05;;;12.90;57.50;;;;;;6300022;28;20032;-76
2024/02/29 01:46:55;;;;;;;43.75;16.02;;;12.90;57.50;;;;;;6290316;28;20082;-76
2024/02/29 01:49:58;;;;;;;41.20;15.27;;;12.90;57.50;;;;;;6306699;28;20074;-74
2024/02/29 01:53:00;;;;;;;40.42;16.45;;;12.90;57.50;;;;;;6295045;28;20562;-75
2024/02/29 01:56:02;;;;;;;40.80;15.80;;;12.90;57.50;;;;;;6299174;28;20038;-76
2024/02/29 01:59:05;;;;;;;37.45;14.13;;;12.90;57.50;;;;;;6299840;28;20101;-76
2024/02/29 02:02:06;;;;;;;39.75;13.70;;;12.90;57.50;;;;;;6307007;28;20082;-76
2024/02/29 02:05:07;;;;;;;32.67;13.52;;;12.80;57.50;;;;;;6306375;28;20082;-75
2024/02/29 02:08:08;;;;;;;37.92;12.98;;;12.90;57.60;;;;;;6286470;28;20013;-76
2024/02/29 02:11:09;;;;;;;28.60;12.65;;;12.80;57.50;;;;;;6307021;28;20317;-76
2024/02/29 02:14:10;;;;;;;33.45;13.27;;;12.80;57.50;;;;;;6287324;28;20071;-75
2024/02/29 02:17:11;;;;;;;34.05;12.82;;;12.80;57.50;;;;;;6307377;28;20020;-75
2024/02/29 02:20:17;;;;;;;39.55;12.88;;;12.90;57.50;;;;;;6307949;28;20032;-76
2024/02/29 02:23:17;;;;;;;28.00;12.43;;;12.90;57.50;;;;;;6294031;28;20076;-76
2024/02/29 02:26:18;;;;;;;32.42;12.73;;;12.80;57.50;;;;;;6289280;28;20043;-75
2024/02/29 02:29:19;;;;;;;28.00;13.13;;;12.80;57.60;;;;;;6269170;28;20108;-75
2024/02/29 02:32:21;;;;;;;31.58;12.15;;;12.80;57.60;;;;;;6306310;28;20073;-76
2024/02/29 02:35:22;;;;;;;35.38;12.05;;;12.80;57.60;;;;;;6306418;28;20333;-76
2024/02/29 02:38:23;;;;;;;28.40;12.35;;;12.80;57.60;;;;;;6305343;28;20064;-76
2024/02/29 02:41:24;;;;;;;27.05;12.02;;;12.70;57.50;;;;;;6289876;28;20024;-76
2024/02/29 02:44:25;;;;;;;27.38;13.05;;;12.70;57.60;;;;;;6298733;28;20028;-75
2024/02/29 02:47:25;;;;;;;27.27;11.82;;;12.60;57.70;;;;;;6285835;28;20016;-75
2024/02/29 02:50:29;;;;;;;24.30;10.43;;;12.60;58.30;;;;;;6306801;28;20027;-74
2024/02/29 02:53:31;;;;;;;29.60;12.25;;;12.50;57.80;;;;;;6302415;28;20425;-75
2024/02/29 02:56:32;;;;;;;27.85;11.65;;;12.50;57.80;;;;;;6307147;28;20111;-76
2024/02/29 02:59:33;;;;;;;31.35;12.02;;;12.50;57.80;;;;;;6298813;28;20035;-75
2024/02/29 03:02:34;;;;;;;30.23;12.68;;;12.50;57.90;;;;;;6303056;28;20063;-76
2024/02/29 03:05:35;;;;;;;26.33;10.98;;;12.50;57.90;;;;;;6284384;28;20073;-74
2024/02/29 03:08:37;;;;;;;27.80;11.75;;;12.50;57.90;;;;;;6299336;28;20042;-75
2024/02/29 03:11:39;;;;;;;29.20;12.40;;;12.40;57.90;;;;;;6303378;28;20448;-76
2024/02/29 03:14:40;;;;;;;24.77;11.32;;;12.50;57.90;;;;;;6304949;28;20026;-76
2024/02/29 03:17:41;;;;;;;28.20;12.10;;;12.50;57.90;;;;;;6306029;28;20024;-75
2024/02/29 03:20:42;;;;;;;28.67;11.35;;;12.50;57.80;;;;;;6279379;28;20406;-75
2024/02/29 03:23:43;;;;;;;30.00;10.45;;;12.50;57.80;;;;;;6297013;28;20019;-75
2024/02/29 03:26:44;;;;;;;26.63;11.50;;;12.40;57.80;;;;;;6295357;28;20016;-76
2024/02/29 03:29:47;;;;;;;27.42;11.93;;;12.40;57.90;;;;;;6290498;28;20082;-77
2024/02/29 03:32:47;;;;;;;25.48;10.55;;;12.40;57.90;;;;;;6281032;28;20444;-76
2024/02/29 03:35:49;;;;;;;23.70;10.63;;;12.50;57.90;;;;;;6293203;28;20049;-76
2024/02/29 03:38:49;;;;;;;26.77;11.57;;;12.50;57.80;;;;;;6280632;28;20059;-74
2024/02/29 03:41:51;;;;;;;23.65;11.20;;;12.50;57.80;;;;;;6287391;28;20628;-75
2024/02/29 03:44:54;;;;;;;27.45;11.35;;;12.50;57.80;;;;;;6304613;28;20061;-77
2024/02/29 03:47:56;;;;;;;26.40;10.82;;;12.40;57.80;;;;;;6297656;28;20098;-76
2024/02/29 03:50:57;;;;;;;30.13;11.90;;;12.40;57.80;;;;;;6304365;28;20334;-75
2024/02/29 03:53:58;;;;;;;21.35;10.55;;;12.40;57.90;;;;;;6302889;28;20024;-76
2024/02/29 03:57:00;;;;;;;28.27;10.13;;;12.40;57.90;;;;;;6304578;28;20016;-75
2024/02/29 04:00:00;;;;;;;24.52;10.75;;;12.40;57.90;;;;;;6281568;28;20032;-76
2024/02/29 04:03:05;;;;;;;23.67;10.68;;;12.40;57.90;;;;;;6307935;28;20106;-75
2024/02/29 04:06:07;;;;;;;23.67;10.02;;;12.40;57.90;;;;;;6302828;28;20147;-74
2024/02/29 04:09:07;;;;;;;23.60;10.00;;;12.40;57.80;;;;;;6293128;28;20028;-75
2024/02/29 04:12:09;;;;;;;22.20;10.55;;;12.40;57.80;;;;;;6301454;28;20103;-75
2024/02/29 04:15:11;;;;;;;31.25;10.40;;;12.40;57.80;;;;;;6288455;28;20020;-75
2024/02/29 04:18:13;;;;;;;27.50;11.30;;;12.40;57.80;;;;;;6305637;28;20020;-75
2024/02/29 04:21:14;;;;;;;28.30;10.98;;;12.40;57.80;;;;;;6287856;28;20408;-76
2024/02/29 04:24:15;;;;;;;30.33;10.90;;;12.20;57.70;;;;;;6304101;28;20101;-76
2024/02/29 04:27:16;;;;;;;24.85;10.60;;;12.30;57.80;;;;;;6296818;28;20071;-76
2024/02/29 04:30:18;;;;;;;28.75;11.07;;;12.20;57.80;;;;;;6294992;28;20036;-76
2024/02/29 04:33:18;;;;;;;24.67;9.68;;;12.20;57.90;;;;;;6300806;28;20732;-76
2024/02/29 04:36:19;;;;;;;29.45;12.20;;;12.20;57.90;;;;;;6298891;28;20016;-75
2024/02/29 04:39:21;;;;;;;27.25;11.10;;;12.10;57.90;;;;;;6302399;28;20182;-76
2024/02/29 04:42:22;;;;;;;30.10;12.50;;;12.10;58.00;;;;;;6300764;28;20453;-76
2024/02/29 04:45:24;;;;;;;25.70;10.95;;;12.10;58.00;;;;;;6300164;28;20121;-75
2024/02/29 04:48:26;;;;;;;34.10;11.48;;;12.10;58.00;;;;;;6321852;28;20039;-76
2024/02/29 04:51:26;;;;;;;29.15;12.70;;;12.10;58.00;;;;;;6296833;28;20048;-76
2024/02/29 04:54:27;;;;;;;23.15;11.10;;;12.10;58.00;;;;;;6311140;28;20060;-77
2024/02/29 04:57:33;;;;;;;26.60;10.52;;;12.10;58.10;;;;;;6310516;28;20411;-75
2024/02/29 05:00:36;;;;;;;30.05;11.65;;;12.00;58.10;;;;;;6292728;28;20055;-76
2024/02/29 05:03:36;;;;;;;24.02;10.48;;;12.00;58.10;;;;;;6311598;28;20016;-76
2024/02/29 05:06:37;;;;;;;26.55;11.00;;;12.10;58.20;;;;;;6285517;28;20071;-75
2024/02/29 05:09:39;;;;;;;28.95;11.32;;;12.00;58.20;;;;;;6309877;28;20097;-74
2024/02/29 05:12:40;;;;;;;28.92;11.55;;;12.00;58.20;;;;;;6288018;28;20032;-76
2024/02/29 05:15:41;;;;;;;25.08;11.13;;;12.00;58.10;;;;;;6301706;28;20039;-76
2024/02/29 05:18:42;;;;;;;26.45;9.98;;;12.00;58.20;;;;;;6290816;28;20044;-76
2024/02/29 05:21:45;;;;;;;27.60;9.93;;;12.00;58.20;;;;;;6298906;28;20485;-75
2024/02/29 05:24:47;;;;;;;28.80;10.93;;;12.00;58.20;;;;;;6307458;28;20024;-75
2024/02/29 05:27:48;;;;;;;26.52;10.75;;;12.00;58.20;;;;;;6268486;28;20036;-76
2024/02/29 05:30:48;;;;;;;27.48;11.40;;;11.90;58.20;;;;;;6298134;28;20051;-75
2024/02/29 05:33:50;;;;;;;25.45;11.23;;;11.90;58.30;;;;;;6297496;28;20033;-76
2024/02/29 05:36:51;;;;;;;32.55;10.98;;;11.90;58.40;;;;;;6302418;28;20047;-73
2024/02/29 05:39:52;;;;;;;25.25;11.05;;;11.90;58.40;;;;;;6309082;28;20452;-75
2024/02/29 05:42:55;;;;;;;30.63;11.38;;;11.80;58.40;;;;;;6292287;28;20025;-76
2024/02/29 05:45:56;;;;;;;31.02;12.63;;;11.80;58.40;;;;;;6293664;28;20026;-76
2024/02/29 05:48:58;;;;;;;30.60;11.10;;;11.80;58.50;;;;;;6289773;28;20379;-74
2024/02/29 05:51:59;;;;;;;23.17;9.15;;;11.80;58.60;;;;;;6276232;28;20036;-75
2024/02/29 05:55:00;;;;;;;30.27;11.60;;;11.80;58.60;;;;;;6305624;28;20024;-76
2024/02/29 05:58:02;;;;;;;26.65;11.45;;;11.80;58.50;;;;;;6302371;28;20428;-75
2024/02/29 06:01:04;;;;;;;30.50;11.23;;;11.80;58.50;;;;;;6308163;28;20081;-75
2024/02/29 06:04:07;;;;;;;30.38;10.60;;;11.90;58.50;;;;;;6300582;28;20105;-75
2024/02/29 06:07:10;;;;;;;28.70;10.68;;;11.90;58.40;;;;;;6301409;28;20109;-75
2024/02/29 06:10:11;;;;;;;24.80;11.05;;;11.90;58.30;;;;;;6303608;28;20115;-74
2024/02/29 06:13:12;;;;;;;26.90;10.43;;;11.90;58.30;;;;;;6307042;28;20032;-74
2024/02/29 06:16:13;;;;;;;33.20;12.10;;;11.90;58.30;;;;;;6307864;28;20468;-76
2024/02/29 06:19:14;;;;;;;30.00;11.88;;;11.80;58.40;;;;;;6289468;28;20036;-75
2024/02/29 06:22:15;;;;;;;23.25;10.18;;;11.80;58.50;;;;;;6282276;28;20365;-74
2024/02/29 06:25:18;;;;;;;21.52;10.40;;;11.80;58.60;;;;;;6302940;28;20032;-76
2024/02/29 06:28:19;;;;;;;28.77;12.35;;;11.70;58.60;;;;;;6304043;28;20066;-75
2024/02/29 06:31:20;;;;;;;29.00;12.20;;;11.80;58.60;;;;;;6300150;28;20008;-75
2024/02/29 06:34:21;;;;;;;30.33;11.52;;;11.80;58.60;;;;;;6295533;28;20028;-75
2024/02/29 06:37:22;;;;;;;27.58;11.40;;;11.70;58.60;;;;;;6307567;28;20031;-74
2024/02/29 06:40:23;;;;;;;29.45;11.68;;;11.70;58.70;;;;;;6280215;28;20112;-76
2024/02/29 06:43:24;;;;;;;30.77;12.55;;;11.80;58.70;;;;;;6304570;28;20576;-76
2024/02/29 06:46:25;;;;;;;28.45;11.57;;;11.80;58.70;;;;;;6300210;28;20020;-75
2024/02/29 06:49:27;;;;;;;29.42;11.55;;;11.90;58.60;;;;;;6290500;28;20101;-75
2024/02/29 06:52:30;;;;;;;35.45;12.80;;;11.90;58.60;;;;;;6277904;28;20024;-75
2024/02/29 06:55:31;;;;;;;42.20;14.25;;;11.90;58.50;;;;;;6285108;28;20028;-76
2024/02/29 06:58:35;;;;;;;28.08;12.10;;;12.00;58.50;;;;;;6308322;28;20043;-75
2024/02/29 07:01:39;;;;;;;31.20;12.30;;;12.00;58.50;;;;;;6280169;28;20040;-75
2024/02/29 07:04:40;;;;;;;29.67;11.43;;;12.10;58.40;;;;;;6296035;28;20032;-75
2024/02/29 07:07:42;;;;;;;35.85;12.88;;;12.20;58.40;;;;;;6303675;28;20114;-75
2024/02/29 07:10:48;;;;;;;30.88;13.40;;;12.20;58.40;;;;;;6306092;28;20069;-75
2024/02/29 07:13:50;;;;;;;32.90;12.60;;;12.20;58.40;;;;;;6297663;28;20024;-75
2024/02/29 07:16:52;;;;;;;36.50;11.25;;;12.20;58.40;;;;;;6283301;28;20115;-75
2024/02/29 07:19:53;;;;;;;33.42;12.63;;;12.30;58.30;;;;;;6284936;28;20043;-76
2024/02/29 07:22:55;;;;;;;33.55;12.65;;;12.30;58.30;;;;;;6299665;28;20083;-76
2024/02/29 07:25:56;;;;;;;32.00;12.90;;;12.40;58.10;;;;;;6290154;28;20026;-75
2024/02/29 07:28:58;;;;;;;29.13;11.57;;;12.40;58.00;;;;;;6281322;28;20028;-75
2024/02/29 07:31:59;;;;;;;32.97;12.63;;;12.40;58.00;;;;;;6295546;28;20028;-76
2024/02/29 07:35:00;;;;;;;36.58;13.57;;;12.50;58.10;;;;;;6298745;28;20106;-77
2024/02/29 07:38:01;;;;;;;33.47;13.05;;;12.50;58.10;;;;;;6281496;28;20555;-76
2024/02/29 07:41:02;;;;;;;35.80;12.80;;;12.50;57.90;;;;;;6301109;28;20024;-77
2024/02/29 07:44:03;;;;;;;35.70;12.57;;;12.50;57.90;;;;;;6270138;28;20137;-76
2024/02/29 07:47:04;;;;;;;34.85;13.82;;;12.60;57.90;;;;;;6287508;28;20418;-76
2024/02/29 07:50:06;;;;;;;34.10;13.13;;;12.60;57.80;;;;;;6296236;28;20016;-76
2024/02/29 07:53:07;;;;;;;40.78;14.27;;;12.60;57.80;;;;;;6304018;28;20048;-77
2024/02/29 07:56:08;;;;;;;39.42;13.00;;;12.70;57.70;;;;;;6304754;28;20122;-76
2024/02/29 07:59:09;;;;;;;37.05;14.40;;;12.70;57.60;;;;;;6289035;28;20115;-77
2024/02/29 08:02:10;;;;;;;39.22;12.93;;;12.70;57.50;;;;;;6285056;28;20729;-76
2024/02/29 08:05:12;;;;;;;32.55;12.82;;;12.80;57.50;;;;;;6293109;28;20023;-76
2024/02/29 08:08:13;;;;;;;40.70;13.13;;;12.80;57.60;;;;;;6288150;28;20123;-77
2024/02/29 08:11:16;;;;;;;39.85;13.60;;;12.80;57.50;;;;;;6289120;28;20486;-78
2024/02/29 08:14:17;;;;;;;34.95;13.18;;;12.90;57.40;;;;;;6290046;28;20102;-76
2024/02/29 08:17:17;;;;;;;32.78;13.85;;;12.90;57.30;;;;;;6274630;28;20356;-74
2024/02/29 08:20:20;;;;;;;45.53;14.73;;;13.00;57.40;;;;;;6290593;28;20024;-75
2024/02/29 08:23:21;;;;;;;31.48;13.07;;;13.00;57.30;;;;;;6287898;28;20023;-76
2024/02/29 08:26:22;;;;;;;37.45;13.10;;;13.00;57.20;;;;;;6257129;28;20024;-78
2024/02/29 08:29:24;;;;;;;37.90;15.32;;;13.10;57.20;;;;;;6289403;28;20023;-76
2024/02/29 08:32:25;;;;;;;36.13;13.93;;;13.10;57.00;;;;;;6289423;28;20055;-76
2024/02/29 08:35:31;;;;;;;36.78;13.88;;;13.10;57.00;;;;;;6292464;28;20016;-77
2024/02/29 08:38:37;;;;;;;34.10;13.35;;;13.20;57.00;;;;;;6308189;28;20035;-80
2024/02/29 08:41:38;;;;;;;34.78;14.50;;;13.20;56.90;;;;;;6292995;28;20073;-76
2024/02/29 08:44:43;;;;;;;32.25;13.43;;;13.20;56.90;;;;;;6273532;28;20351;-75
2024/02/29 08:47:45;;;;;;;42.60;14.70;;;13.30;56.90;;;;;;6275941;28;20012;-76
2024/02/29 08:50:45;;;;;;;36.78;13.88;;;13.30;56.80;;;;;;6290142;28;20070;-76
2024/02/29 08:53:48;;;;;;;46.38;16.15;;;13.40;56.70;;;;;;6289500;28;20109;-77
2024/02/29 08:56:48;;;;;;;38.65;14.48;;;13.40;56.60;;;;;;6289431;28;20214;-78
2024/02/29 08:59:50;;;;;;;38.85;14.38;;;13.40;56.50;;;;;;6274616;28;20055;-76
2024/02/29 09:02:52;;;;;;;37.03;14.25;;;13.30;56.50;;;;;;6292337;28;20024;-77
2024/02/29 09:05:54;;;;;;;43.38;14.15;;;13.30;56.60;;;;;;6289679;28;20028;-76
2024/02/29 09:08:55;;;;;;;40.05;15.27;;;13.40;56.70;;;;;;6290023;28;20028;-76
2024/02/29 09:11:56;;;;;;;40.03;15.38;;;13.50;56.60;;;;;;6290787;28;20120;-78
2024/02/29 09:15:01;;;;;;;35.40;15.55;;;13.70;56.50;;;;;;6323533;28;20403;-77
2024/02/29 09:18:03;;;;;;;40.05;16.60;;;13.80;56.40;;;;;;6288356;28;20544;-76
2024/02/29 09:21:05;;;;;;;39.08;15.50;;;14.00;56.20;;;;;;6290891;28;20036;-76
2024/02/29 09:24:07;;;;;;;45.58;17.20;;;14.10;55.90;;;;;;6289033;28;20032;-77
2024/02/29 09:27:08;;;;;;;38.55;15.27;;;14.20;55.60;;;;;;6288997;28;20135;-77
2024/02/29 09:30:12;;;;;;;42.92;15.45;;;14.20;55.30;;;;;;6289082;28;20259;-77
2024/02/29 09:33:14;;;;;;;38.63;14.35;;;14.30;55.30;;;;;;6292090;28;20716;-77
2024/02/29 09:36:15;;;;;;;41.85;15.02;;;14.40;55.20;;;;;;6276416;28;20024;-76
2024/02/29 09:39:16;;;;;;;39.42;14.95;;;14.50;55.20;;;;;;6292841;28;20040;-77
2024/02/29 09:42:18;;;;;;;40.72;14.23;;;14.60;55.10;;;;;;6293593;28;20346;-76
2024/02/29 09:45:25;;;;;;;37.25;14.45;;;14.80;54.80;;;;;;6278387;28;20432;-77
2024/02/29 09:48:27;;;;;;;53.42;16.42;;;14.90;54.10;;;;;;6294253;28;20134;-76
2024/02/29 09:51:30;;;;;;;37.38;15.38;;;15.00;54.20;;;;;;6267670;28;20056;-77
2024/02/29 09:54:34;;;;;;;42.75;16.38;;;15.10;54.00;;;;;;6296675;28;20088;-76
2024/02/29 09:57:35;;;;;;;42.05;15.55;;;15.10;53.90;;;;;;6298267;28;20028;-76
2024/02/29 10:00:36;;;;;;;45.35;17.67;;;15.00;53.70;;;;;;6296514;28;20909;-77
2024/02/29 10:03:37;;;;;;;44.25;17.10;;;15.20;53.70;;;;;;6286110;28;20447;-78
2024/02/29 10:06:41;;;;;;;33.60;15.07;;;15.20;53.60;;;;;;6280845;28;20055;-78
2024/02/29 10:09:45;;;;;;;34.45;14.77;;;15.20;53.40;;;;;;6294729;28;20027;-77
2024/02/29 10:12:54;;;;;;;34.80;13.65;;;15.30;53.20;;;;;;6276271;28;20081;-76
2024/02/29 10:15:55;;;;;;;32.35;12.93;;;15.30;52.90;;;;;;6295455;28;20090;-78
2024/02/29 10:18:56;;;;;;;34.45;13.90;;;15.40;52.70;;;;;;6297233;28;20357;-77
2024/02/29 10:21:58;;;;;;;38.53;15.40;;;15.40;52.70;;;;;;6307984;28;20066;-77
2024/02/29 10:25:02;;;;;;;38.70;13.93;;;15.50;52.40;;;;;;6306790;28;20016;-78
2024/02/29 10:28:03;;;;;;;35.83;13.68;;;15.50;52.30;;;;;;6304880;28;20174;-78
2024/02/29 10:31:04;;;;;;;39.83;13.25;;;15.40;52.20;;;;;;6305709;28;20039;-77
2024/02/29 10:34:10;;;;;;;35.63;13.50;;;15.50;52.10;;;;;;6307839;28;20039;-77
2024/02/29 10:37:11;;;;;;;35.97;13.20;;;15.50;51.90;;;;;;6298067;28;20028;-76
2024/02/29 10:40:12;;;;;;;38.97;14.25;;;15.50;51.70;;;;;;6309552;28;20495;-79
2024/02/29 10:43:14;;;;;;;36.67;14.27;;;15.50;51.50;;;;;;6305517;28;20444;-75
2024/02/29 10:46:18;;;;;;;34.30;12.88;;;15.40;51.40;;;;;;6308748;28;20056;-77
2024/02/29 10:49:33;;;;;;;31.60;13.00;;;15.20;51.50;;;;;;6309821;28;20016;-77
2024/02/29 10:52:38;;;;;;;36.33;13.77;;;15.20;51.60;;;;;;6309440;28;20036;-77
2024/02/29 10:55:56;;;;;;;35.17;12.73;;;15.10;51.80;;;;;;6304782;28;20067;-74
2024/02/29 10:59:07;;;;;;;35.42;13.35;;;15.20;51.70;;;;;;6313417;28;20035;-77
2024/02/29 11:02:08;;;;;;;32.92;12.05;;;15.20;51.60;;;;;;6280242;28;20099;-76
2024/02/29 11:05:10;;;;;;;29.10;12.35;;;15.30;51.40;;;;;;6289957;28;20027;-76
2024/02/29 11:08:14;;;;;;;34.13;12.70;;;15.20;51.20;;;;;;6290320;28;20028;-78
2024/02/29 11:11:19;;;;;;;35.15;12.18;;;15.30;51.30;;;;;;6296707;28;20028;-76
2024/02/29 11:14:21;;;;;;;34.40;12.75;;;15.40;51.10;;;;;;6291872;28;20035;-76
2024/02/29 11:17:25;;;;;;;31.52;11.40;;;15.40;50.80;;;;;;6315316;28;20020;-76
2024/02/29 11:20:27;;;;;;;33.47;12.13;;;15.30;50.70;;;;;;6306765;28;20032;-74
2024/02/29 11:23:35;;;;;;;36.97;12.80;;;15.30;50.70;;;;;;6274969;28;20035;-76
2024/02/29 11:26:37;;;;;;;33.70;11.60;;;15.20;50.80;;;;;;6290457;28;20053;-75
2024/02/29 11:29:42;;;;;;;31.70;11.52;;;15.20;50.80;;;;;;6291071;28;20032;-74
2024/02/29 11:32:45;;;;;;;34.28;13.38;;;15.20;50.80;;;;;;6272725;28;20040;-76
2024/02/29 11:35:46;;;;;;;34.00;13.55;;;15.10;50.80;;;;;;6290436;28;20080;-75
2024/02/29 11:38:47;;;;;;;31.73;11.85;;;15.00;50.90;;;;;;6292124;28;20760;-75
2024/02/29 11:42:09;;;;;;;36.03;13.30;;;15.10;51.10;;;;;;6273973;28;20039;-76
2024/02/29 11:45:22;;;;;;;31.20;11.77;;;15.10;51.00;;;;;;6288227;28;20020;-75
2024/02/29 11:48:23;;;;;;;31.00;12.25;;;15.10;50.80;;;;;;6304958;28;20103;-76
2024/02/29 11:51:28;;;;;;;28.88;12.02;;;15.10;50.80;;;;;;6289543;28;20012;-75
2024/02/29 11:54:30;;;;;;;37.42;12.38;;;15.10;50.90;;;;;;6291375;28;20024;-75
2024/02/29 11:57:33;;;;;;;25.23;11.23;;;15.10;50.90;;;;;;6305253;28;20016;-75
2024/02/29 12:00:34;;;;;;;32.80;12.43;;;15.10;50.90;;;;;;6295608;28;20059;-75
2024/02/29 12:03:35;;;;;;;35.90;12.60;;;15.10;50.80;;;;;;6287388;28;20015;-75
2024/02/29 12:06:36;;;;;;;29.25;11.95;;;15.10;50.70;;;;;;6289250;28;20455;-76
2024/02/29 12:09:39;;;;;;;32.78;11.38;;;15.10;50.60;;;;;;6289851;28;20085;-76
2024/02/29 12:12:40;;;;;;;28.83;11.68;;;15.20;50.60;;;;;;6306535;28;20350;-76
2024/02/29 12:15:41;;;;;;;31.33;13.15;;;15.20;50.60;;;;;;6292274;28;20161;-75
2024/02/29 12:18:45;;;;;;;32.88;11.90;;;15.00;50.30;;;;;;6304901;28;20069;-76
2024/02/29 12:21:48;;;;;;;24.42;10.80;;;15.20;50.50;;;;;;6305530;28;20044;-77
2024/02/29 12:24:51;;;;;;;24.40;10.98;;;15.10;50.60;;;;;;6290384;28;20020;-76
2024/02/29 12:27:53;;;;;;;27.95;11.07;;;15.10;50.50;;;;;;6305275;28;20088;-76
2024/02/29 12:30:54;;;;;;;27.65;9.93;;;15.00;50.60;;;;;;6285049;28;20017;-76
2024/02/29 12:33:55;;;;;;;30.60;11.88;;;15.00;50.80;;;;;;6288699;28;20554;-75
2024/02/29 12:36:56;;;;;;;31.77;12.18;;;14.90;51.00;;;;;;6290434;28;20456;-75
2024/02/29 12:39:59;;;;;;;32.75;11.18;;;15.00;51.30;;;;;;6306769;28;20101;-74
2024/02/29 12:43:01;;;;;;;37.95;11.45;;;15.10;50.80;;;;;;6272017;28;20019;-75
2024/02/29 12:46:04;;;;;;;31.85;10.95;;;15.10;50.70;;;;;;6274662;28;20032;-75
2024/02/29 12:49:07;;;;;;;25.70;11.10;;;15.20;50.70;;;;;;6289805;28;20072;-77
2024/02/29 12:52:08;;;;;;;26.27;12.15;;;15.20;50.60;;;;;;6291350;28;20028;-75
2024/02/29 12:55:09;;;;;;;30.92;11.98;;;15.20;50.60;;;;;;6273659;28;20079;-75
2024/02/29 12:58:14;;;;;;;35.75;11.70;;;15.10;50.60;;;;;;6302419;28;20161;-74
2024/02/29 13:01:17;;;;;;;35.05;12.02;;;15.10;50.70;;;;;;6285743;28;20044;-75
2024/02/29 13:04:17;;;;;;;28.52;11.73;;;15.20;50.80;;;;;;6291178;28;20024;-76
2024/02/29 13:07:21;;;;;;;24.15;10.13;;;15.20;50.70;;;;;;6270880;28;20043;-73
2024/02/29 13:10:23;;;;;;;28.73;11.77;;;15.30;50.60;;;;;;6277306;28;20095;-74
2024/02/29 13:13:24;;;;;;;26.77;10.23;;;15.30;50.40;;;;;;6295909;28;20031;-74
2024/02/29 13:16:25;;;;;;;26.73;10.77;;;15.40;50.30;;;;;;6279278;28;20441;-74
2024/02/29 13:19:26;;;;;;;21.55;10.18;;;15.40;50.20;;;;;;6276487;28;20047;-75
2024/02/29 13:22:28;;;;;;;24.00;9.05;;;15.50;50.40;;;;;;6293847;28;20046;-74
2024/02/29 13:25:29;;;;;;;30.25;11.07;;;15.60;50.20;;;;;;6293348;28;20787;-75
2024/02/29 13:28:31;;;;;;;31.67;12.05;;;15.70;49.90;;;;;;6274941;28;20448;-74
2024/02/29 13:31:32;;;;;;;23.55;9.25;;;15.80;49.80;;;;;;6292345;28;20024;-74
2024/02/29 13:34:35;;;;;;;24.77;9.40;;;15.90;49.60;;;;;;6292452;28;20048;-74
2024/02/29 13:37:37;;;;;;;26.30;10.57;;;15.90;49.50;;;;;;6292366;28;20469;-74
2024/02/29 13:40:38;;;;;;;23.35;10.35;;;16.10;49.30;;;;;;6294303;28;20086;-74
2024/02/29 13:43:42;;;;;;;24.77;10.45;;;16.20;49.10;;;;;;6293200;28;20016;-74
2024/02/29 13:46:43;;;;;;;28.10;10.55;;;16.30;48.80;;;;;;6276412;28;20023;-76
2024/02/29 13:49:44;;;;;;;26.60;10.63;;;16.40;48.70;;;;;;6292365;28;20055;-75
2024/02/29 13:52:47;;;;;;;21.77;9.55;;;16.50;48.50;;;;;;6292872;28;20020;-75
2024/02/29 13:55:49;;;;;;;28.77;9.73;;;16.50;48.30;;;;;;6293249;28;20543;-74
2024/02/29 13:58:50;;;;;;;24.60;8.98;;;16.50;48.40;;;;;;6295001;28;20048;-74
2024/02/29 14:01:52;;;;;;;25.20;9.70;;;16.50;48.20;;;;;;6295955;28;20149;-75
2024/02/29 14:04:53;;;;;;;22.73;7.72;;;16.50;48.20;;;;;;6294002;28;20086;-74
2024/02/29 14:07:54;;;;;;;17.58;8.60;;;16.50;47.90;;;;;;6276139;28;20138;-77
2024/02/29 14:10:57;;;;;;;18.67;8.35;;;16.60;47.90;;;;;;6277258;28;20449;-74
2024/02/29 14:13:57;;;;;;;17.58;7.43;;;16.50;47.60;;;;;;6291686;28;20016;-74
2024/02/29 14:16:58;;;;;;;20.67;8.48;;;16.50;47.60;;;;;;6277036;28;20550;-75
2024/02/29 14:20:02;;;;;;;19.90;8.13;;;16.40;47.50;;;;;;6293416;28;20122;-75
2024/02/29 14:23:04;;;;;;;27.23;9.05;;;16.30;47.80;;;;;;6290449;28;20090;-74
2024/02/29 14:26:05;;;;;;;21.83;7.95;;;16.20;48.00;;;;;;6293588;28;20125;-76
2024/02/29 14:29:06;;;;;;;18.95;8.18;;;16.20;48.10;;;;;;6290971;28;20119;-73
2024/02/29 14:32:08;;;;;;;15.88;7.10;;;16.20;48.10;;;;;;6294133;28;20127;-75
2024/02/29 14:35:11;;;;;;;21.55;7.60;;;16.30;48.00;;;;;;6292400;28;21594;-75
2024/02/29 14:38:13;;;;;;;21.80;7.65;;;16.30;47.90;;;;;;6293877;28;20118;-75
2024/02/29 14:41:14;;;;;;;22.20;7.85;;;16.30;47.70;;;;;;6291791;28;20448;-76
2024/02/29 14:44:15;;;;;;;23.33;8.80;;;16.30;47.70;;;;;;6275354;28;20084;-75
2024/02/29 14:47:17;;;;;;;25.15;9.18;;;16.30;47.80;;;;;;6297764;28;20559;-78
2024/02/29 14:50:17;;;;;;;21.35;8.50;;;16.40;47.70;;;;;;6307628;28;20057;-76
2024/02/29 14:53:19;;;;;;;23.88;9.13;;;16.40;47.70;;;;;;6306343;28;20340;-77
2024/02/29 14:56:21;;;;;;;27.40;10.35;;;16.40;47.70;;;;;;6297086;28;20024;-77
2024/02/29 14:59:22;;;;;;;21.85;9.38;;;16.40;47.70;;;;;;6314154;28;20055;-76
2024/02/29 15:02:23;;;;;;;21.52;8.43;;;16.40;47.70;;;;;;6306441;28;20070;-76
2024/02/29 15:05:24;;;;;;;19.73;8.68;;;16.50;47.80;;;;;;6305396;28;21058;-77
2024/02/29 15:08:25;;;;;;;28.10;8.40;;;16.50;47.70;;;;;;6300227;28;20483;-76
2024/02/29 15:11:26;;;;;;;30.08;8.85;;;16.40;47.60;;;;;;6305844;28;20005;-77
2024/02/29 15:14:30;;;;;;;21.27;8.20;;;16.40;47.60;;;;;;6299552;28;20012;-77
2024/02/29 15:17:32;;;;;;;22.65;8.00;;;16.40;47.70;;;;;;6298789;28;20052;-76
2024/02/29 15:20:33;;;;;;;17.45;7.40;;;16.30;47.70;;;;;;6305794;28;20103;-76
2024/02/29 15:23:34;;;;;;;20.88;7.80;;;16.30;47.80;;;;;;6300254;28;20020;-76